createdAt,value
2022-10-11T03:09:53.294Z,96.49
2022-10-11T03:12:55.719Z,97.20
2022-10-11T03:16:03.161Z,98.63
2022-10-11T03:19:06.146Z,98.97
2022-10-11T03:22:08.185Z,99.05
2022-10-11T03:25:10.759Z,98.46
2022-10-11T03:28:12.821Z,98.50
2022-10-11T03:31:15.173Z,98.51
2022-10-11T03:34:17.216Z,98.21
2022-10-11T03:37:21.949Z,97.03
2022-10-11T03:40:24.005Z,96.94
2022-10-11T03:43:26.368Z,96.45
2022-10-11T03:46:28.426Z,95.37
2022-10-11T03:49:31.149Z,95.06
2022-10-11T03:52:33.908Z,94.35
2022-10-11T03:55:38.678Z,93.13
2022-10-11T03:58:41.572Z,92.83
2022-10-11T04:01:44.006Z,93.08
2022-10-11T04:04:46.354Z,92.45
2022-10-11T04:07:48.399Z,92.14
2022-10-11T04:10:50.834Z,91.30
2022-10-11T04:13:53.026Z,90.98
2022-10-11T04:16:59.533Z,90.63
2022-10-11T04:20:02.375Z,91.15
2022-10-11T04:23:04.987Z,91.41
2022-10-11T04:26:08.769Z,91.12
2022-10-11T04:29:11.847Z,91.70
2022-10-11T04:32:13.906Z,91.86
2022-10-11T04:35:16.290Z,91.20
2022-10-11T04:38:18.339Z,91.08
2022-10-11T04:41:20.645Z,91.14
2022-10-11T04:44:22.735Z,90.58
2022-10-11T04:47:25.182Z,89.82
2022-10-11T04:50:27.225Z,89.60
2022-10-11T04:53:32.609Z,89.14
2022-10-11T04:56:34.670Z,89.09
2022-10-11T04:59:37.021Z,89.31
2022-10-11T05:02:39.052Z,88.44
2022-10-11T05:05:41.368Z,88.50
2022-10-11T05:08:43.444Z,88.52
2022-10-11T05:11:45.882Z,88.49
2022-10-11T05:14:47.920Z,89.17
2022-10-11T05:17:50.223Z,88.86
2022-10-11T05:21:00.284Z,89.31
2022-10-11T05:24:02.682Z,87.20
2022-10-11T05:27:04.738Z,86.26
2022-10-11T05:30:07.937Z,85.56
2022-10-11T05:33:09.978Z,83.99
2022-10-11T05:36:12.801Z,83.51
2022-10-11T05:39:14.882Z,82.53
2022-10-11T05:42:17.356Z,82.77
2022-10-11T05:45:19.395Z,82.71
2022-10-11T05:48:22.031Z,81.36
2022-10-11T05:51:24.075Z,82.46
2022-10-11T05:54:29.979Z,81.84
2022-10-11T05:57:32.058Z,81.07
2022-10-11T06:00:38.054Z,80.50
2022-10-11T06:03:40.462Z,79.62
2022-10-11T06:06:42.495Z,79.36
2022-10-11T06:09:44.817Z,78.47
2022-10-11T06:12:46.914Z,76.85
2022-10-11T06:15:49.241Z,72.99
2022-10-11T06:18:55.282Z,73.12
2022-10-11T06:21:57.501Z,70.69
2022-10-11T06:24:59.481Z,66.05
2022-10-11T06:28:01.910Z,62.89
2022-10-11T06:31:06.026Z,61.08
2022-10-11T06:34:08.326Z,59.86
2022-10-11T06:37:10.388Z,58.79
2022-10-11T06:40:12.802Z,58.63
2022-10-11T06:43:14.828Z,59.14
2022-10-11T06:46:18.600Z,60.11
2022-10-11T06:49:23.263Z,61.45
2022-10-11T06:52:25.925Z,61.08
2022-10-11T06:55:27.972Z,60.17
2022-10-11T06:58:30.655Z,61.02
2022-10-11T07:01:33.321Z,61.11
2022-10-11T07:04:35.780Z,60.72
2022-10-11T07:07:37.879Z,58.65
2022-10-11T07:10:40.433Z,59.66
2022-10-11T07:13:42.735Z,59.32
2022-10-11T07:16:45.064Z,57.31
2022-10-11T07:19:47.303Z,58.39
2022-10-11T07:22:49.617Z,57.46
2022-10-11T07:25:54.644Z,56.11
2022-10-11T07:28:57.320Z,57.02
2022-10-11T07:31:59.603Z,55.93
2022-10-11T07:35:01.899Z,56.48
2022-10-11T07:38:05.071Z,55.38
2022-10-11T07:41:08.784Z,56.29
2022-10-11T07:44:10.808Z,55.23
2022-10-11T07:47:13.408Z,56.88
2022-10-11T07:50:15.537Z,57.24
2022-10-11T07:53:17.876Z,56.61
2022-10-11T07:56:23.054Z,56.54
2022-10-11T07:59:25.405Z,55.23
2022-10-11T08:02:27.460Z,54.90
2022-10-11T08:05:30.478Z,54.77
2022-10-11T08:08:32.863Z,54.34
2022-10-11T08:11:37.114Z,52.86
2022-10-11T08:14:41.444Z,54.51
2022-10-11T08:17:43.848Z,53.25
2022-10-11T08:20:46.082Z,52.87
2022-10-11T08:23:48.576Z,52.54
2022-10-11T08:26:51.426Z,53.48
2022-10-11T08:29:53.728Z,54.53
2022-10-11T08:32:55.828Z,54.82
2022-10-11T08:35:58.408Z,55.04
2022-10-11T08:39:01.067Z,54.71
2022-10-11T08:42:10.857Z,55.42
2022-10-11T08:45:32.985Z,55.39
2022-10-11T08:48:49.146Z,55.34
2022-10-11T08:52:00.037Z,56.23
2022-10-11T08:55:08.260Z,54.24
2022-10-11T08:58:16.930Z,53.79
2022-10-11T09:01:23.809Z,54.46
2022-10-11T09:04:26.014Z,54.04
2022-10-11T09:07:42.028Z,54.34
2022-10-11T09:11:05.889Z,56.81
2022-10-11T09:14:42.522Z,55.56
2022-10-11T09:17:54.978Z,54.51
2022-10-11T09:21:16.573Z,54.63
2022-10-11T09:24:45.597Z,54.98
2022-10-11T09:28:08.549Z,55.22
2022-10-11T09:31:11.848Z,55.12
2022-10-11T09:34:16.056Z,54.96
2022-10-11T09:37:24.587Z,55.20
2022-10-11T09:40:44.936Z,54.67
2022-10-11T09:43:49.452Z,55.09
2022-10-11T09:46:53.770Z,55.89
2022-10-11T09:50:13.415Z,54.05
2022-10-11T09:53:15.770Z,53.36
2022-10-11T09:56:18.265Z,53.76
2022-10-11T09:59:29.467Z,54.30
2022-10-11T10:02:41.163Z,52.76
2022-10-11T10:05:43.484Z,52.94
2022-10-11T10:08:47.418Z,52.98
2022-10-11T10:11:49.797Z,51.67
2022-10-11T10:15:17.763Z,51.22
2022-10-11T10:18:54.471Z,49.75
2022-10-11T10:21:57.061Z,47.46
2022-10-11T10:25:02.562Z,44.73
2022-10-11T10:28:17.749Z,46.17
2022-10-11T10:31:26.421Z,47.22
2022-10-11T10:34:33.808Z,48.43
2022-10-11T10:38:03.192Z,47.99
2022-10-11T10:41:09.821Z,48.19
2022-10-11T10:44:12.202Z,48.53
2022-10-11T10:47:29.200Z,50.33
2022-10-11T10:50:52.471Z,49.22
2022-10-11T10:54:08.557Z,46.00
2022-10-11T10:57:18.357Z,43.87
2022-10-11T11:00:22.894Z,42.18
2022-10-11T11:03:34.458Z,41.52
2022-10-11T11:06:58.758Z,40.76
2022-10-11T11:10:13.100Z,37.82
2022-10-11T11:13:55.092Z,38.35
2022-10-11T11:17:24.926Z,35.62
2022-10-11T11:20:44.852Z,35.48
2022-10-11T11:24:03.546Z,33.57
2022-10-11T11:27:24.671Z,33.18
2022-10-11T11:30:48.543Z,34.07
2022-10-11T11:34:00.081Z,31.69
2022-10-11T11:37:17.621Z,25.90
2022-10-11T11:40:39.314Z,25.25
2022-10-11T11:44:06.742Z,28.84
2022-10-11T11:47:17.881Z,33.10
2022-10-11T11:50:23.743Z,37.64
2022-10-11T11:53:47.475Z,39.74
2022-10-11T11:57:40.700Z,42.12
2022-10-11T12:00:58.295Z,43.56
2022-10-11T12:04:12.779Z,44.44
2022-10-11T12:07:18.342Z,43.89
2022-10-11T12:10:23.713Z,43.99
2022-10-11T12:13:32.482Z,43.66
2022-10-11T12:16:35.045Z,43.52
2022-10-11T12:19:39.867Z,44.20
2022-10-11T12:22:54.251Z,43.65
2022-10-11T12:26:18.267Z,44.45
2022-10-11T12:29:47.028Z,45.84
2022-10-11T12:32:51.009Z,45.66
2022-10-11T12:35:53.288Z,46.67
2022-10-11T12:39:20.374Z,45.94
2022-10-11T12:42:29.969Z,45.65
2022-10-11T12:45:34.100Z,46.56
2022-10-11T12:48:51.092Z,48.35
2022-10-11T12:52:21.753Z,49.19
2022-10-11T12:55:41.762Z,46.87
2022-10-11T12:58:48.069Z,47.44
2022-10-11T13:01:54.135Z,48.15
2022-10-11T13:05:31.771Z,47.90
2022-10-11T13:08:37.535Z,49.13
2022-10-11T13:11:48.113Z,50.29
2022-10-11T13:15:03.817Z,50.48
2022-10-11T13:18:05.934Z,53.46
2022-10-11T13:21:26.828Z,54.76
2022-10-11T13:24:37.225Z,54.54
2022-10-11T13:27:39.700Z,56.85
2022-10-11T13:30:52.057Z,58.39
2022-10-11T13:33:56.844Z,57.15
2022-10-11T13:36:59.034Z,58.58
2022-10-11T13:40:01.797Z,59.45
2022-10-11T13:43:06.253Z,59.54
2022-10-11T13:46:19.294Z,62.30
2022-10-11T13:49:40.232Z,62.43
2022-10-11T13:52:56.283Z,59.95
2022-10-11T13:56:01.147Z,56.79
2022-10-11T13:59:04.474Z,55.26
2022-10-11T14:02:23.776Z,54.33
2022-10-11T14:05:41.258Z,53.16
2022-10-11T14:08:47.202Z,52.33
2022-10-11T14:11:49.988Z,51.97
2022-10-11T14:14:52.475Z,52.79
2022-10-11T14:17:54.801Z,52.88
2022-10-11T14:20:56.961Z,52.73
2022-10-11T14:24:05.406Z,56.27
2022-10-11T14:27:14.649Z,53.38
2022-10-11T14:30:27.294Z,54.69
2022-10-11T14:33:29.911Z,54.87
2022-10-11T14:36:32.389Z,55.24
2022-10-11T14:39:34.480Z,57.39
2022-10-11T14:42:36.783Z,56.83
2022-10-11T14:45:39.055Z,55.76
2022-10-11T14:48:54.842Z,58.10
2022-10-11T14:51:59.296Z,57.58
2022-10-11T14:55:01.874Z,57.27
2022-10-11T14:58:05.314Z,58.17
2022-10-11T15:01:12.193Z,59.63
2022-10-11T15:04:14.263Z,61.26
2022-10-11T15:07:16.628Z,62.00
2022-10-11T15:10:25.989Z,61.99
2022-10-11T15:13:28.294Z,60.50
2022-10-11T15:16:30.557Z,61.40
2022-10-11T15:19:32.928Z,62.10
